sensor_id;sensor_type;location;lat;lon;timestamp;P1;durP1;ratioP1;P2;durP2;ratioP2
10904;SDS011;5505;51.450;9.254;2023-07-22T00:01:28;16.00;;;8.40;;
10904;SDS011;5505;51.450;9.254;2023-07-22T00:04:17;14.13;;;8.30;;
10904;SDS011;5505;51.450;9.254;2023-07-22T00:07:04;13.33;;;7.63;;
10904;SDS011;5505;51.450;9.254;2023-07-22T00:09:51;15.53;;;8.03;;
10904;SDS011;5505;51.450;9.254;2023-07-22T00:12:38;15.03;;;7.43;;
10904;SDS011;5505;51.450;9.254;2023-07-22T00:15:25;12.93;;;8.07;;
10904;SDS011;5505;51.450;9.254;2023-07-22T00:18:11;14.77;;;7.73;;
10904;SDS011;5505;51.450;9.254;2023-07-22T00:21:00;13.57;;;7.63;;
10904;SDS011;5505;51.450;9.254;2023-07-22T00:23:47;15.77;;;7.47;;
10904;SDS011;5505;51.450;9.254;2023-07-22T00:26:33;13.83;;;7.90;;
10904;SDS011;5505;51.450;9.254;2023-07-22T00:29:20;15.77;;;8.50;;
10904;SDS011;5505;51.450;9.254;2023-07-22T00:32:07;14.83;;;8.27;;
10904;SDS011;5505;51.450;9.254;2023-07-22T00:34:54;13.47;;;7.70;;
10904;SDS011;5505;51.450;9.254;2023-07-22T00:37:43;17.23;;;8.00;;
10904;SDS011;5505;51.450;9.254;2023-07-22T00:40:30;18.63;;;7.93;;
10904;SDS011;5505;51.450;9.254;2023-07-22T00:43:17;14.70;;;8.00;;
10904;SDS011;5505;51.450;9.254;2023-07-22T00:46:03;18.37;;;8.20;;
10904;SDS011;5505;51.450;9.254;2023-07-22T00:48:50;19.47;;;8.13;;
10904;SDS011;5505;51.450;9.254;2023-07-22T00:51:39;21.37;;;8.20;;
10904;SDS011;5505;51.450;9.254;2023-07-22T00:54:27;19.10;;;8.00;;
10904;SDS011;5505;51.450;9.254;2023-07-22T00:57:15;12.97;;;8.33;;
10904;SDS011;5505;51.450;9.254;2023-07-22T01:00:03;20.10;;;8.40;;
10904;SDS011;5505;51.450;9.254;2023-07-22T01:02:50;15.70;;;8.60;;
10904;SDS011;5505;51.450;9.254;2023-07-22T01:05:38;13.07;;;8.07;;
10904;SDS011;5505;51.450;9.254;2023-07-22T01:08:27;11.87;;;8.77;;
10904;SDS011;5505;51.450;9.254;2023-07-22T01:11:16;16.33;;;8.90;;
10904;SDS011;5505;51.450;9.254;2023-07-22T01:14:03;13.30;;;8.23;;
10904;SDS011;5505;51.450;9.254;2023-07-22T01:16:50;13.20;;;8.00;;
10904;SDS011;5505;51.450;9.254;2023-07-22T01:19:37;14.20;;;8.23;;
10904;SDS011;5505;51.450;9.254;2023-07-22T01:22:25;13.00;;;8.33;;
10904;SDS011;5505;51.450;9.254;2023-07-22T01:25:14;14.33;;;8.33;;
10904;SDS011;5505;51.450;9.254;2023-07-22T01:28:01;14.43;;;8.40;;
10904;SDS011;5505;51.450;9.254;2023-07-22T01:30:48;16.57;;;7.90;;
10904;SDS011;5505;51.450;9.254;2023-07-22T01:33:35;18.27;;;8.30;;
10904;SDS011;5505;51.450;9.254;2023-07-22T01:36:22;18.50;;;8.07;;
10904;SDS011;5505;51.450;9.254;2023-07-22T01:39:10;14.57;;;8.20;;
10904;SDS011;5505;51.450;9.254;2023-07-22T01:41:58;17.70;;;8.07;;
10904;SDS011;5505;51.450;9.254;2023-07-22T01:44:45;13.93;;;7.90;;
10904;SDS011;5505;51.450;9.254;2023-07-22T01:47:32;12.70;;;8.07;;
10904;SDS011;5505;51.450;9.254;2023-07-22T01:50:18;21.20;;;7.83;;
10904;SDS011;5505;51.450;9.254;2023-07-22T01:53:05;15.30;;;8.27;;
10904;SDS011;5505;51.450;9.254;2023-07-22T01:55:52;18.80;;;7.97;;
10904;SDS011;5505;51.450;9.254;2023-07-22T01:58:41;16.37;;;7.80;;
10904;SDS011;5505;51.450;9.254;2023-07-22T02:01:28;18.77;;;8.47;;
10904;SDS011;5505;51.450;9.254;2023-07-22T02:04:14;17.97;;;7.27;;
10904;SDS011;5505;51.450;9.254;2023-07-22T02:07:01;13.77;;;7.97;;
10904;SDS011;5505;51.450;9.254;2023-07-22T02:09:48;18.87;;;8.00;;
10904;SDS011;5505;51.450;9.254;2023-07-22T02:12:37;18.07;;;7.90;;
10904;SDS011;5505;51.450;9.254;2023-07-22T02:15:25;15.80;;;7.80;;
10904;SDS011;5505;51.450;9.254;2023-07-22T02:18:12;10.83;;;7.77;;
10904;SDS011;5505;51.450;9.254;2023-07-22T02:20:59;12.27;;;6.93;;
10904;SDS011;5505;51.450;9.254;2023-07-22T02:23:46;12.83;;;7.10;;
10904;SDS011;5505;51.450;9.254;2023-07-22T02:26:33;14.17;;;7.37;;
10904;SDS011;5505;51.450;9.254;2023-07-22T02:29:20;11.73;;;7.70;;
10904;SDS011;5505;51.450;9.254;2023-07-22T02:32:08;12.80;;;7.80;;
10904;SDS011;5505;51.450;9.254;2023-07-22T02:34:55;13.33;;;7.27;;
10904;SDS011;5505;51.450;9.254;2023-07-22T02:37:42;14.33;;;7.50;;
10904;SDS011;5505;51.450;9.254;2023-07-22T02:40:28;11.50;;;6.90;;
10904;SDS011;5505;51.450;9.254;2023-07-22T02:43:15;10.20;;;6.37;;
10904;SDS011;5505;51.450;9.254;2023-07-22T02:46:02;16.50;;;6.87;;
10904;SDS011;5505;51.450;9.254;2023-07-22T02:48:52;14.03;;;6.87;;
10904;SDS011;5505;51.450;9.254;2023-07-22T02:51:40;10.40;;;6.27;;
10904;SDS011;5505;51.450;9.254;2023-07-22T02:54:28;14.47;;;6.33;;
10904;SDS011;5505;51.450;9.254;2023-07-22T02:57:16;11.57;;;6.37;;
10904;SDS011;5505;51.450;9.254;2023-07-22T03:00:04;12.90;;;7.23;;
10904;SDS011;5505;51.450;9.254;2023-07-22T03:02:54;9.87;;;6.30;;
10904;SDS011;5505;51.450;9.254;2023-07-22T03:05:47;13.70;;;7.20;;
10904;SDS011;5505;51.450;9.254;2023-07-22T03:08:35;15.63;;;6.73;;
10904;SDS011;5505;51.450;9.254;2023-07-22T03:11:22;10.90;;;7.30;;
10904;SDS011;5505;51.450;9.254;2023-07-22T03:14:10;11.23;;;6.53;;
10904;SDS011;5505;51.450;9.254;2023-07-22T03:16:58;14.07;;;6.23;;
10904;SDS011;5505;51.450;9.254;2023-07-22T03:19:45;15.30;;;6.80;;
10904;SDS011;5505;51.450;9.254;2023-07-22T03:22:33;12.00;;;6.87;;
10904;SDS011;5505;51.450;9.254;2023-07-22T03:25:20;12.40;;;6.90;;
10904;SDS011;5505;51.450;9.254;2023-07-22T03:28:06;13.60;;;6.77;;
10904;SDS011;5505;51.450;9.254;2023-07-22T03:30:53;12.47;;;7.10;;
10904;SDS011;5505;51.450;9.254;2023-07-22T03:33:40;9.50;;;6.47;;
10904;SDS011;5505;51.450;9.254;2023-07-22T03:36:31;12.47;;;7.00;;
10904;SDS011;5505;51.450;9.254;2023-07-22T03:39:21;12.73;;;6.77;;
10904;SDS011;5505;51.450;9.254;2023-07-22T03:42:08;12.80;;;7.03;;
10904;SDS011;5505;51.450;9.254;2023-07-22T03:44:56;13.43;;;7.67;;
10904;SDS011;5505;51.450;9.254;2023-07-22T03:47:43;12.83;;;6.30;;
10904;SDS011;5505;51.450;9.254;2023-07-22T03:50:31;8.93;;;6.37;;
10904;SDS011;5505;51.450;9.254;2023-07-22T03:53:18;11.20;;;6.40;;
10904;SDS011;5505;51.450;9.254;2023-07-22T03:56:06;13.60;;;6.50;;
10904;SDS011;5505;51.450;9.254;2023-07-22T03:58:52;10.37;;;6.70;;
10904;SDS011;5505;51.450;9.254;2023-07-22T04:01:39;10.23;;;6.33;;
10904;SDS011;5505;51.450;9.254;2023-07-22T04:04:26;12.70;;;6.67;;
10904;SDS011;5505;51.450;9.254;2023-07-22T04:07:13;13.93;;;6.50;;
10904;SDS011;5505;51.450;9.254;2023-07-22T04:10:00;8.93;;;6.27;;
10904;SDS011;5505;51.450;9.254;2023-07-22T04:12:49;12.63;;;6.67;;
10904;SDS011;5505;51.450;9.254;2023-07-22T04:15:35;12.03;;;7.27;;
10904;SDS011;5505;51.450;9.254;2023-07-22T04:18:22;14.13;;;7.27;;
10904;SDS011;5505;51.450;9.254;2023-07-22T04:21:09;16.80;;;7.20;;
10904;SDS011;5505;51.450;9.254;2023-07-22T04:23:56;13.97;;;7.30;;
10904;SDS011;5505;51.450;9.254;2023-07-22T04:26:43;15.73;;;6.77;;
10904;SDS011;5505;51.450;9.254;2023-07-22T04:29:31;13.93;;;6.60;;
10904;SDS011;5505;51.450;9.254;2023-07-22T04:32:18;15.73;;;7.30;;
10904;SDS011;5505;51.450;9.254;2023-07-22T04:35:05;15.97;;;7.33;;
10904;SDS011;5505;51.450;9.254;2023-07-22T04:37:52;19.80;;;6.83;;
10904;SDS011;5505;51.450;9.254;2023-07-22T04:40:42;15.07;;;7.57;;
10904;SDS011;5505;51.450;9.254;2023-07-22T04:43:29;25.97;;;7.93;;
10904;SDS011;5505;51.450;9.254;2023-07-22T04:46:17;25.50;;;8.00;;
10904;SDS011;5505;51.450;9.254;2023-07-22T04:49:04;17.63;;;7.80;;
10904;SDS011;5505;51.450;9.254;2023-07-22T04:51:51;17.47;;;7.73;;
10904;SDS011;5505;51.450;9.254;2023-07-22T04:54:38;21.93;;;7.93;;
10904;SDS011;5505;51.450;9.254;2023-07-22T04:57:25;22.73;;;7.83;;
10904;SDS011;5505;51.450;9.254;2023-07-22T05:00:13;17.90;;;8.03;;
10904;SDS011;5505;51.450;9.254;2023-07-22T05:03:02;18.07;;;8.83;;
10904;SDS011;5505;51.450;9.254;2023-07-22T05:05:49;13.57;;;8.67;;
10904;SDS011;5505;51.450;9.254;2023-07-22T05:08:36;12.57;;;8.70;;
10904;SDS011;5505;51.450;9.254;2023-07-22T05:11:24;13.63;;;8.60;;
10904;SDS011;5505;51.450;9.254;2023-07-22T05:14:11;12.13;;;8.50;;
10904;SDS011;5505;51.450;9.254;2023-07-22T05:16:58;10.27;;;8.53;;
10904;SDS011;5505;51.450;9.254;2023-07-22T05:19:46;11.97;;;8.70;;
10904;SDS011;5505;51.450;9.254;2023-07-22T05:22:34;10.60;;;8.50;;
10904;SDS011;5505;51.450;9.254;2023-07-22T05:25:20;11.10;;;8.40;;
10904;SDS011;5505;51.450;9.254;2023-07-22T05:28:07;12.07;;;8.50;;
10904;SDS011;5505;51.450;9.254;2023-07-22T05:30:55;10.43;;;8.30;;
10904;SDS011;5505;51.450;9.254;2023-07-22T05:33:42;10.20;;;7.70;;
10904;SDS011;5505;51.450;9.254;2023-07-22T05:36:30;10.53;;;7.43;;
10904;SDS011;5505;51.450;9.254;2023-07-22T05:39:17;10.27;;;7.70;;
10904;SDS011;5505;51.450;9.254;2023-07-22T05:42:04;7.93;;;7.10;;
10904;SDS011;5505;51.450;9.254;2023-07-22T05:44:53;10.97;;;7.50;;
10904;SDS011;5505;51.450;9.254;2023-07-22T05:47:40;10.97;;;7.27;;
10904;SDS011;5505;51.450;9.254;2023-07-22T05:50:27;11.43;;;7.70;;
10904;SDS011;5505;51.450;9.254;2023-07-22T05:53:15;10.63;;;7.47;;
10904;SDS011;5505;51.450;9.254;2023-07-22T05:56:02;9.63;;;7.40;;
10904;SDS011;5505;51.450;9.254;2023-07-22T05:58:49;8.60;;;6.87;;
10904;SDS011;5505;51.450;9.254;2023-07-22T06:01:36;10.70;;;7.30;;
10904;SDS011;5505;51.450;9.254;2023-07-22T06:04:23;8.87;;;7.17;;
10904;SDS011;5505;51.450;9.254;2023-07-22T06:07:10;10.93;;;7.33;;
10904;SDS011;5505;51.450;9.254;2023-07-22T06:09:58;10.83;;;7.43;;
10904;SDS011;5505;51.450;9.254;2023-07-22T06:12:45;9.10;;;7.10;;
10904;SDS011;5505;51.450;9.254;2023-07-22T06:15:32;9.43;;;6.97;;
10904;SDS011;5505;51.450;9.254;2023-07-22T06:18:19;7.60;;;6.80;;
10904;SDS011;5505;51.450;9.254;2023-07-22T06:21:06;10.30;;;7.37;;
10904;SDS011;5505;51.450;9.254;2023-07-22T06:23:53;11.10;;;7.40;;
10904;SDS011;5505;51.450;9.254;2023-07-22T06:26:41;12.20;;;7.10;;
10904;SDS011;5505;51.450;9.254;2023-07-22T06:29:28;7.70;;;6.80;;
10904;SDS011;5505;51.450;9.254;2023-07-22T06:32:14;7.80;;;6.53;;
10904;SDS011;5505;51.450;9.254;2023-07-22T06:35:01;7.93;;;6.50;;
10904;SDS011;5505;51.450;9.254;2023-07-22T06:37:48;8.87;;;6.27;;
10904;SDS011;5505;51.450;9.254;2023-07-22T06:40:35;7.40;;;6.63;;
10904;SDS011;5505;51.450;9.254;2023-07-22T06:43:23;8.30;;;6.30;;
10904;SDS011;5505;51.450;9.254;2023-07-22T06:46:10;7.23;;;6.30;;
10904;SDS011;5505;51.450;9.254;2023-07-22T06:48:56;10.00;;;6.13;;
10904;SDS011;5505;51.450;9.254;2023-07-22T06:51:43;8.23;;;6.63;;
10904;SDS011;5505;51.450;9.254;2023-07-22T06:54:30;12.27;;;6.20;;
10904;SDS011;5505;51.450;9.254;2023-07-22T06:57:17;7.03;;;6.17;;
10904;SDS011;5505;51.450;9.254;2023-07-22T07:00:06;8.87;;;5.60;;
10904;SDS011;5505;51.450;9.254;2023-07-22T07:02:55;8.17;;;6.27;;
10904;SDS011;5505;51.450;9.254;2023-07-22T07:05:41;6.97;;;6.13;;
10904;SDS011;5505;51.450;9.254;2023-07-22T07:08:31;8.00;;;6.33;;
10904;SDS011;5505;51.450;9.254;2023-07-22T07:11:18;8.50;;;5.83;;
10904;SDS011;5505;51.450;9.254;2023-07-22T07:14:05;8.80;;;6.07;;
10904;SDS011;5505;51.450;9.254;2023-07-22T07:16:53;10.07;;;6.57;;
10904;SDS011;5505;51.450;9.254;2023-07-22T07:19:39;7.67;;;5.80;;
10904;SDS011;5505;51.450;9.254;2023-07-22T07:22:26;7.47;;;5.43;;
10904;SDS011;5505;51.450;9.254;2023-07-22T07:25:13;9.17;;;6.33;;
10904;SDS011;5505;51.450;9.254;2023-07-22T07:28:00;7.00;;;6.30;;
10904;SDS011;5505;51.450;9.254;2023-07-22T07:30:49;7.03;;;6.30;;
10904;SDS011;5505;51.450;9.254;2023-07-22T07:33:37;7.93;;;6.20;;
10904;SDS011;5505;51.450;9.254;2023-07-22T07:36:24;7.20;;;6.07;;
10904;SDS011;5505;51.450;9.254;2023-07-22T07:39:11;9.97;;;7.00;;
10904;SDS011;5505;51.450;9.254;2023-07-22T07:41:58;8.23;;;6.60;;
10904;SDS011;5505;51.450;9.254;2023-07-22T07:44:44;7.67;;;6.57;;
10904;SDS011;5505;51.450;9.254;2023-07-22T07:47:32;7.30;;;5.90;;
10904;SDS011;5505;51.450;9.254;2023-07-22T07:50:20;8.70;;;6.50;;
10904;SDS011;5505;51.450;9.254;2023-07-22T07:53:07;8.87;;;5.93;;
10904;SDS011;5505;51.450;9.254;2023-07-22T07:55:54;6.70;;;6.00;;
10904;SDS011;5505;51.450;9.254;2023-07-22T07:58:40;11.33;;;6.60;;
10904;SDS011;5505;51.450;9.254;2023-07-22T08:01:27;7.37;;;5.97;;
10904;SDS011;5505;51.450;9.254;2023-07-22T08:04:14;8.00;;;6.23;;
10904;SDS011;5505;51.450;9.254;2023-07-22T08:07:05;6.10;;;5.40;;
10904;SDS011;5505;51.450;9.254;2023-07-22T08:09:53;6.73;;;5.73;;
10904;SDS011;5505;51.450;9.254;2023-07-22T08:12:43;7.50;;;5.97;;
10904;SDS011;5505;51.450;9.254;2023-07-22T08:15:29;7.13;;;5.90;;
10904;SDS011;5505;51.450;9.254;2023-07-22T08:18:16;6.90;;;6.27;;
10904;SDS011;5505;51.450;9.254;2023-07-22T08:21:04;11.20;;;6.20;;
10904;SDS011;5505;51.450;9.254;2023-07-22T08:23:53;10.33;;;6.17;;
10904;SDS011;5505;51.450;9.254;2023-07-22T08:26:40;6.57;;;5.90;;
10904;SDS011;5505;51.450;9.254;2023-07-22T08:29:27;8.10;;;6.30;;
10904;SDS011;5505;51.450;9.254;2023-07-22T08:32:13;6.13;;;5.53;;
10904;SDS011;5505;51.450;9.254;2023-07-22T08:35:00;7.73;;;5.93;;
10904;SDS011;5505;51.450;9.254;2023-07-22T08:37:47;8.03;;;5.73;;
10904;SDS011;5505;51.450;9.254;2023-07-22T08:40:35;6.17;;;5.57;;
10904;SDS011;5505;51.450;9.254;2023-07-22T08:43:23;5.80;;;4.90;;
10904;SDS011;5505;51.450;9.254;2023-07-22T08:46:10;7.07;;;5.80;;
10904;SDS011;5505;51.450;9.254;2023-07-22T08:48:59;7.40;;;5.90;;
10904;SDS011;5505;51.450;9.254;2023-07-22T08:51:46;6.50;;;5.37;;
10904;SDS011;5505;51.450;9.254;2023-07-22T08:54:34;7.23;;;5.57;;
10904;SDS011;5505;51.450;9.254;2023-07-22T08:57:24;5.87;;;5.20;;
10904;SDS011;5505;51.450;9.254;2023-07-22T09:00:13;5.67;;;5.17;;
10904;SDS011;5505;51.450;9.254;2023-07-22T09:03:00;6.40;;;5.80;;
10904;SDS011;5505;51.450;9.254;2023-07-22T09:05:47;5.30;;;4.80;;
10904;SDS011;5505;51.450;9.254;2023-07-22T09:08:34;6.57;;;5.83;;
10904;SDS011;5505;51.450;9.254;2023-07-22T09:11:21;5.23;;;4.77;;
10904;SDS011;5505;51.450;9.254;2023-07-22T09:14:09;5.50;;;5.00;;
10904;SDS011;5505;51.450;9.254;2023-07-22T09:16:57;5.80;;;5.20;;
10904;SDS011;5505;51.450;9.254;2023-07-22T09:19:43;5.27;;;4.77;;
10904;SDS011;5505;51.450;9.254;2023-07-22T09:22:31;6.60;;;5.20;;
10904;SDS011;5505;51.450;9.254;2023-07-22T09:25:18;6.83;;;5.10;;
10904;SDS011;5505;51.450;9.254;2023-07-22T09:28:06;7.17;;;5.53;;
10904;SDS011;5505;51.450;9.254;2023-07-22T09:31:01;5.50;;;5.00;;
10904;SDS011;5505;51.450;9.254;2023-07-22T09:33:48;6.03;;;5.00;;
10904;SDS011;5505;51.450;9.254;2023-07-22T09:36:40;7.43;;;5.23;;
10904;SDS011;5505;51.450;9.254;2023-07-22T09:39:37;5.70;;;5.20;;
10904;SDS011;5505;51.450;9.254;2023-07-22T09:42:24;5.50;;;4.97;;
10904;SDS011;5505;51.450;9.254;2023-07-22T09:45:11;6.93;;;5.13;;
10904;SDS011;5505;51.450;9.254;2023-07-22T09:47:59;5.80;;;5.03;;
10904;SDS011;5505;51.450;9.254;2023-07-22T09:50:46;5.40;;;4.90;;
10904;SDS011;5505;51.450;9.254;2023-07-22T09:53:45;5.93;;;5.27;;
10904;SDS011;5505;51.450;9.254;2023-07-22T09:56:33;5.90;;;5.30;;
10904;SDS011;5505;51.450;9.254;2023-07-22T09:59:29;8.27;;;4.90;;
10904;SDS011;5505;51.450;9.254;2023-07-22T10:02:18;5.70;;;4.63;;
10904;SDS011;5505;51.450;9.254;2023-07-22T10:05:12;5.77;;;5.00;;
10904;SDS011;5505;51.450;9.254;2023-07-22T10:08:01;5.50;;;5.00;;
10904;SDS011;5505;51.450;9.254;2023-07-22T10:10:51;5.77;;;4.77;;
10904;SDS011;5505;51.450;9.254;2023-07-22T10:13:41;5.23;;;4.73;;
10904;SDS011;5505;51.450;9.254;2023-07-22T10:16:28;6.70;;;4.77;;
10904;SDS011;5505;51.450;9.254;2023-07-22T10:19:15;5.00;;;4.50;;
10904;SDS011;5505;51.450;9.254;2023-07-22T10:22:04;5.57;;;4.77;;
10904;SDS011;5505;51.450;9.254;2023-07-22T10:24:52;5.03;;;4.43;;
10904;SDS011;5505;51.450;9.254;2023-07-22T10:27:41;4.80;;;4.37;;
10904;SDS011;5505;51.450;9.254;2023-07-22T10:30:28;4.90;;;4.33;;
10904;SDS011;5505;51.450;9.254;2023-07-22T10:33:17;5.07;;;4.43;;
10904;SDS011;5505;51.450;9.254;2023-07-22T10:36:05;6.40;;;4.70;;
10904;SDS011;5505;51.450;9.254;2023-07-22T10:38:56;5.10;;;4.60;;
10904;SDS011;5505;51.450;9.254;2023-07-22T10:41:46;5.80;;;4.40;;
10904;SDS011;5505;51.450;9.254;2023-07-22T10:44:35;4.83;;;4.33;;
10904;SDS011;5505;51.450;9.254;2023-07-22T10:47:33;6.00;;;4.43;;
10904;SDS011;5505;51.450;9.254;2023-07-22T10:50:21;4.73;;;4.33;;
10904;SDS011;5505;51.450;9.254;2023-07-22T10:53:11;3.93;;;3.63;;
10904;SDS011;5505;51.450;9.254;2023-07-22T10:56:10;5.70;;;4.10;;
10904;SDS011;5505;51.450;9.254;2023-07-22T10:58:59;4.53;;;4.03;;
10904;SDS011;5505;51.450;9.254;2023-07-22T11:01:48;4.37;;;3.93;;
10904;SDS011;5505;51.450;9.254;2023-07-22T11:04:36;5.70;;;4.17;;
10904;SDS011;5505;51.450;9.254;2023-07-22T11:07:32;4.10;;;3.70;;
10904;SDS011;5505;51.450;9.254;2023-07-22T11:10:20;4.40;;;3.90;;
10904;SDS011;5505;51.450;9.254;2023-07-22T11:13:08;4.33;;;3.40;;
10904;SDS011;5505;51.450;9.254;2023-07-22T11:15:59;3.90;;;3.53;;
10904;SDS011;5505;51.450;9.254;2023-07-22T11:18:46;3.53;;;3.20;;
10904;SDS011;5505;51.450;9.254;2023-07-22T11:21:33;3.33;;;3.03;;
10904;SDS011;5505;51.450;9.254;2023-07-22T11:24:20;3.50;;;3.20;;
10904;SDS011;5505;51.450;9.254;2023-07-22T11:27:08;4.07;;;3.03;;
10904;SDS011;5505;51.450;9.254;2023-07-22T11:29:58;3.10;;;2.90;;
10904;SDS011;5505;51.450;9.254;2023-07-22T11:32:45;3.03;;;2.73;;
10904;SDS011;5505;51.450;9.254;2023-07-22T11:35:32;3.10;;;2.80;;
10904;SDS011;5505;51.450;9.254;2023-07-22T11:38:19;3.97;;;2.90;;
10904;SDS011;5505;51.450;9.254;2023-07-22T11:41:06;3.50;;;3.00;;
10904;SDS011;5505;51.450;9.254;2023-07-22T11:43:56;4.13;;;3.00;;
10904;SDS011;5505;51.450;9.254;2023-07-22T11:46:48;4.13;;;2.93;;
10904;SDS011;5505;51.450;9.254;2023-07-22T11:49:40;5.23;;;2.90;;
10904;SDS011;5505;51.450;9.254;2023-07-22T11:52:28;4.33;;;3.00;;
10904;SDS011;5505;51.450;9.254;2023-07-22T11:55:15;3.63;;;2.50;;
10904;SDS011;5505;51.450;9.254;2023-07-22T11:58:08;2.97;;;2.50;;
10904;SDS011;5505;51.450;9.254;2023-07-22T12:01:02;2.90;;;2.30;;
10904;SDS011;5505;51.450;9.254;2023-07-22T12:03:55;3.60;;;2.20;;
10904;SDS011;5505;51.450;9.254;2023-07-22T12:06:42;2.67;;;2.30;;
10904;SDS011;5505;51.450;9.254;2023-07-22T12:09:28;2.23;;;2.13;;
10904;SDS011;5505;51.450;9.254;2023-07-22T12:12:15;3.30;;;2.37;;
10904;SDS011;5505;51.450;9.254;2023-07-22T12:15:08;4.23;;;2.37;;
10904;SDS011;5505;51.450;9.254;2023-07-22T12:17:59;3.77;;;2.60;;
10904;SDS011;5505;51.450;9.254;2023-07-22T12:20:48;3.10;;;2.90;;
10904;SDS011;5505;51.450;9.254;2023-07-22T12:23:35;3.40;;;3.10;;
10904;SDS011;5505;51.450;9.254;2023-07-22T12:26:23;5.07;;;3.00;;
10904;SDS011;5505;51.450;9.254;2023-07-22T12:29:10;2.80;;;2.60;;
10904;SDS011;5505;51.450;9.254;2023-07-22T12:31:57;3.10;;;2.80;;
10904;SDS011;5505;51.450;9.254;2023-07-22T12:34:43;2.77;;;2.57;;
10904;SDS011;5505;51.450;9.254;2023-07-22T12:37:32;2.80;;;2.43;;
10904;SDS011;5505;51.450;9.254;2023-07-22T12:40:19;3.50;;;2.80;;
10904;SDS011;5505;51.450;9.254;2023-07-22T12:43:06;4.03;;;3.10;;
10904;SDS011;5505;51.450;9.254;2023-07-22T12:45:53;2.90;;;2.70;;
10904;SDS011;5505;51.450;9.254;2023-07-22T12:48:40;4.43;;;2.70;;
10904;SDS011;5505;51.450;9.254;2023-07-22T12:51:26;2.93;;;2.50;;
10904;SDS011;5505;51.450;9.254;2023-07-22T12:54:15;5.13;;;2.80;;
10904;SDS011;5505;51.450;9.254;2023-07-22T12:57:01;2.73;;;2.47;;
10904;SDS011;5505;51.450;9.254;2023-07-22T12:59:49;2.90;;;2.20;;
10904;SDS011;5505;51.450;9.254;2023-07-22T13:02:36;2.60;;;2.20;;
10904;SDS011;5505;51.450;9.254;2023-07-22T13:05:24;2.30;;;2.00;;
10904;SDS011;5505;51.450;9.254;2023-07-22T13:08:12;4.53;;;2.00;;
10904;SDS011;5505;51.450;9.254;2023-07-22T13:11:00;2.13;;;2.00;;
10904;SDS011;5505;51.450;9.254;2023-07-22T13:13:47;2.23;;;2.03;;
10904;SDS011;5505;51.450;9.254;2023-07-22T13:16:33;3.03;;;1.97;;
10904;SDS011;5505;51.450;9.254;2023-07-22T13:19:20;2.43;;;2.10;;
10904;SDS011;5505;51.450;9.254;2023-07-22T13:22:07;2.53;;;1.90;;
10904;SDS011;5505;51.450;9.254;2023-07-22T13:24:54;3.23;;;1.97;;
10904;SDS011;5505;51.450;9.254;2023-07-22T13:27:42;4.73;;;1.93;;
10904;SDS011;5505;51.450;9.254;2023-07-22T13:30:28;1.97;;;1.73;;
10904;SDS011;5505;51.450;9.254;2023-07-22T13:33:15;4.20;;;2.20;;
10904;SDS011;5505;51.450;9.254;2023-07-22T13:36:03;2.07;;;1.87;;
10904;SDS011;5505;51.450;9.254;2023-07-22T13:38:50;3.60;;;1.90;;
10904;SDS011;5505;51.450;9.254;2023-07-22T13:41:37;2.40;;;2.20;;
10904;SDS011;5505;51.450;9.254;2023-07-22T13:44:25;3.90;;;2.40;;
10904;SDS011;5505;51.450;9.254;2023-07-22T13:47:12;2.10;;;1.90;;
10904;SDS011;5505;51.450;9.254;2023-07-22T13:49:58;3.23;;;2.10;;
10904;SDS011;5505;51.450;9.254;2023-07-22T13:52:48;2.00;;;1.90;;
10904;SDS011;5505;51.450;9.254;2023-07-22T13:55:35;3.20;;;2.10;;
10904;SDS011;5505;51.450;9.254;2023-07-22T13:58:22;2.67;;;2.27;;
10904;SDS011;5505;51.450;9.254;2023-07-22T14:01:10;2.63;;;2.10;;
10904;SDS011;5505;51.450;9.254;2023-07-22T14:03:57;2.43;;;2.23;;
10904;SDS011;5505;51.450;9.254;2023-07-22T14:06:44;3.17;;;2.30;;
10904;SDS011;5505;51.450;9.254;2023-07-22T14:09:31;3.83;;;2.70;;
10904;SDS011;5505;51.450;9.254;2023-07-22T14:12:19;2.70;;;2.50;;
10904;SDS011;5505;51.450;9.254;2023-07-22T14:15:06;2.53;;;2.30;;
10904;SDS011;5505;51.450;9.254;2023-07-22T14:17:56;3.00;;;2.80;;
10904;SDS011;5505;51.450;9.254;2023-07-22T14:20:43;3.90;;;2.43;;
10904;SDS011;5505;51.450;9.254;2023-07-22T14:23:30;5.73;;;2.40;;
10904;SDS011;5505;51.450;9.254;2023-07-22T14:26:17;3.07;;;1.90;;
10904;SDS011;5505;51.450;9.254;2023-07-22T14:29:05;2.40;;;2.20;;
10904;SDS011;5505;51.450;9.254;2023-07-22T14:31:52;3.30;;;2.10;;
10904;SDS011;5505;51.450;9.254;2023-07-22T14:34:40;3.50;;;2.17;;
10904;SDS011;5505;51.450;9.254;2023-07-22T14:37:27;2.23;;;2.10;;
10904;SDS011;5505;51.450;9.254;2023-07-22T14:40:14;2.33;;;2.13;;
10904;SDS011;5505;51.450;9.254;2023-07-22T14:43:01;2.40;;;2.00;;
10904;SDS011;5505;51.450;9.254;2023-07-22T14:45:47;2.20;;;2.00;;
10904;SDS011;5505;51.450;9.254;2023-07-22T14:48:34;2.43;;;2.17;;
10904;SDS011;5505;51.450;9.254;2023-07-22T14:51:22;2.30;;;2.10;;
10904;SDS011;5505;51.450;9.254;2023-07-22T14:54:09;2.87;;;1.73;;
10904;SDS011;5505;51.450;9.254;2023-07-22T14:56:57;2.30;;;2.10;;
10904;SDS011;5505;51.450;9.254;2023-07-22T14:59:45;2.30;;;2.03;;
10904;SDS011;5505;51.450;9.254;2023-07-22T15:02:33;2.07;;;1.97;;
10904;SDS011;5505;51.450;9.254;2023-07-22T15:05:20;2.20;;;2.00;;
10904;SDS011;5505;51.450;9.254;2023-07-22T15:08:08;1.87;;;1.60;;
10904;SDS011;5505;51.450;9.254;2023-07-22T15:10:55;2.03;;;1.80;;
10904;SDS011;5505;51.450;9.254;2023-07-22T15:13:42;2.37;;;1.80;;
10904;SDS011;5505;51.450;9.254;2023-07-22T15:16:30;2.10;;;1.90;;
10904;SDS011;5505;51.450;9.254;2023-07-22T15:19:16;2.23;;;1.93;;
10904;SDS011;5505;51.450;9.254;2023-07-22T15:22:03;3.20;;;2.07;;
10904;SDS011;5505;51.450;9.254;2023-07-22T15:24:52;2.67;;;1.80;;
10904;SDS011;5505;51.450;9.254;2023-07-22T15:27:39;2.37;;;2.10;;
10904;SDS011;5505;51.450;9.254;2023-07-22T15:30:25;2.10;;;1.90;;
10904;SDS011;5505;51.450;9.254;2023-07-22T15:33:12;2.53;;;1.97;;
10904;SDS011;5505;51.450;9.254;2023-07-22T15:35:59;2.87;;;1.80;;
10904;SDS011;5505;51.450;9.254;2023-07-22T15:38:46;2.97;;;1.70;;
10904;SDS011;5505;51.450;9.254;2023-07-22T15:41:34;2.80;;;2.10;;
10904;SDS011;5505;51.450;9.254;2023-07-22T15:44:21;3.00;;;2.07;;
10904;SDS011;5505;51.450;9.254;2023-07-22T15:47:12;2.63;;;2.00;;
10904;SDS011;5505;51.450;9.254;2023-07-22T15:49:59;3.90;;;2.10;;
10904;SDS011;5505;51.450;9.254;2023-07-22T15:52:46;2.17;;;1.97;;
10904;SDS011;5505;51.450;9.254;2023-07-22T15:55:32;3.17;;;1.80;;
10904;SDS011;5505;51.450;9.254;2023-07-22T15:58:20;2.23;;;1.80;;
10904;SDS011;5505;51.450;9.254;2023-07-22T16:01:07;2.63;;;2.20;;
10904;SDS011;5505;51.450;9.254;2023-07-22T16:03:54;1.90;;;1.80;;
10904;SDS011;5505;51.450;9.254;2023-07-22T16:06:41;3.13;;;2.23;;
10904;SDS011;5505;51.450;9.254;2023-07-22T16:09:28;2.20;;;2.00;;
10904;SDS011;5505;51.450;9.254;2023-07-22T16:12:17;2.10;;;1.90;;
10904;SDS011;5505;51.450;9.254;2023-07-22T16:15:06;3.70;;;2.43;;
10904;SDS011;5505;51.450;9.254;2023-07-22T16:17:53;3.87;;;2.37;;
10904;SDS011;5505;51.450;9.254;2023-07-22T16:20:40;2.53;;;1.80;;
10904;SDS011;5505;51.450;9.254;2023-07-22T16:23:27;2.30;;;2.10;;
10904;SDS011;5505;51.450;9.254;2023-07-22T16:26:14;2.80;;;2.10;;
10904;SDS011;5505;51.450;9.254;2023-07-22T16:29:01;3.30;;;2.10;;
10904;SDS011;5505;51.450;9.254;2023-07-22T16:31:49;4.23;;;2.00;;
10904;SDS011;5505;51.450;9.254;2023-07-22T16:34:36;2.37;;;1.67;;
10904;SDS011;5505;51.450;9.254;2023-07-22T16:37:23;1.80;;;1.70;;
10904;SDS011;5505;51.450;9.254;2023-07-22T16:40:10;2.30;;;2.10;;
10904;SDS011;5505;51.450;9.254;2023-07-22T16:42:57;2.70;;;2.50;;
10904;SDS011;5505;51.450;9.254;2023-07-22T16:45:46;2.70;;;2.50;;
10904;SDS011;5505;51.450;9.254;2023-07-22T16:48:34;2.87;;;2.40;;
10904;SDS011;5505;51.450;9.254;2023-07-22T16:51:21;1.73;;;1.63;;
10904;SDS011;5505;51.450;9.254;2023-07-22T16:54:08;3.10;;;2.80;;
10904;SDS011;5505;51.450;9.254;2023-07-22T16:56:55;4.07;;;3.50;;
10904;SDS011;5505;51.450;9.254;2023-07-22T16:59:42;1.90;;;1.80;;